Weather observations for the past three days for
Natchitoches, Natchitoches Regional Airport
Imperial (Metric)
Date Time (cdt) Wind (mph) Vis. (mi.) Weather Sky Cond. Temperature (ºF) Relative Humidity Wind Chill (°F) Heat Index (°F) Pressure Precipitation (in)
Air Dwpt 6 hour altimeter (in) sea level (mb) 1 hr 3 hr 6 hr
Max. Min.
05 03:15 Calm 10.00 Fair CLR 77.2 74.3 91% 79 29.93 0.0
05 02:55 Calm 10.00 Fair CLR 77 74.5 92% 78 29.93 0.0
05 02:35 Calm 10.00 Fair CLR 77.9 73.9 88% 80 29.93 0.0
05 02:15 Calm 10.00 Fair CLR 78.3 73.6 86% 81 29.93 0.0
05 01:55 Calm 10.00 Fair CLR 79 73.6 84% 82 29.93 0.0
05 01:35 Calm 10.00 Fair CLR 77.9 74.1 88% 80 29.93 0.0
05 01:15 Calm 10.00 Fair CLR 78.3 73.9 87% 81 29.93 0.0
05 00:55 Calm 10.00 Fair CLR 78.8 74.3 89.4 78.8 86% 82 29.93 0.0
05 00:35 Calm 10.00 Fair CLR 78.8 74.1 86% 82 29.93 0.0
05 00:15 Calm 10.00 Fair CLR 79.7 73.8 82% 84 29.93 0.0
04 23:55 Calm 10.00 Fair CLR 78.8 73.8 85% 82 29.93 0.0
04 23:35 Calm 10.00 Fair CLR 80.6 73.4 79% 85 29.94 0.0
04 23:15 Calm 10.00 Fair CLR 80.6 73.2 78% 85 29.95 0.0
04 22:55 Calm 10.00 Fair CLR 81 73 77% 86 29.95 0.0
04 22:35 Calm 10.00 Fair CLR 81.7 73.4 76% 87 29.95 0.0
04 22:15 Calm 10.00 Fair CLR 82.4 73.6 75% 88 29.96 0.0
04 21:55 Calm 10.00 Fair CLR 82.9 73.6 73% 89 29.95 0.0
04 21:35 Calm 10.00 Fair CLR 82.6 73.8 75% 89 29.95 0.0
04 21:15 Calm 10.00 Fair CLR 82.8 73.8 74% 89 29.94 0.0
04 20:55 Calm 10.00 Fair CLR 84.2 73.2 70% 91 29.93 0.0
04 20:35 Calm 10.00 Fair CLR 84.6 72.9 68% 91 29.93 0.0
04 20:15 Calm 10.00 Thunderstorm in Vicinity CLR 84.9 72.3 66% 91 29.93 0.0
04 19:55 E 5 10.00 Fair CLR 85.5 72 64% 92 29.92 0.0
04 19:35 Calm 10.00 Partly Cloudy SCT020 SCT041 SCT060 86.2 72.1 63% 93 29.92 0.0
04 19:15 E 7 10.00 Partly Cloudy SCT065 SCT080 SCT090 88.7 71.8 57% 95 29.92 0.0
04 18:55 E 10 G 18 10.00 Partly Cloudy SCT065 89.8 72.1 97.3 88.7 56% 97 29.92 0.0
04 18:35 Calm 10.00 Fair CLR 91.8 71.2 51% 99 29.91 0.0
04 18:15 Calm 10.00 Thunderstorm in Vicinity SCT100 92.3 72 52% 100 29.91 0.0
04 17:55 E 3 10.00 Thunderstorm in Vicinity BKN100 92.3 71.4 51% 100 29.9 0.0
04 17:35 E 6 10.00 Partly Cloudy SCT100 92.3 71.6 51% 100 29.89 0.0
04 17:15 E 8 10.00 Mostly Cloudy SCT038 BKN100 95.2 71.4 46% 103 29.89 0.0
04 16:55 E 9 10.00 Mostly Cloudy BKN090 95 71.8 47% 103 29.89 0.0
04 16:35 Calm 10.00 Fair CLR 95.4 68.9 42% 101 29.9 0.0
04 16:15 Calm 10.00 Partly Cloudy SCT110 96.3 68.7 41% 102 29.9 0.0
04 15:55 Calm 10.00 Partly Cloudy SCT110 95.5 70.9 45% 103 29.91 0.0
04 15:35 SE 3 10.00 Partly Cloudy SCT100 95.5 71.8 46% 104 29.92 0.0
04 15:15 NE 7 10.00 Partly Cloudy SCT032 SCT070 92.5 70.9 49% 99 29.92 0.0
04 14:55 E 10 G 22 10.00 Fair CLR 90.7 72.1 55% 98 29.93 0.0
04 14:35 Calm 10.00 Partly Cloudy SCT060 SCT085 95.2 70.7 45% 102 29.93 0.0
04 14:15 Calm 10.00 Partly Cloudy SCT060 SCT070 SCT085 93.7 70.9 47% 101 29.94 0.0
04 13:55 E 6 10.00 Partly Cloudy SCT050 96.4 71.6 45% 105 29.95 0.0
04 13:35 Calm 10.00 Partly Cloudy SCT050 94.8 68.7 43% 100 29.96 0.0
04 13:15 Calm 10.00 Partly Cloudy SCT050 94.6 71.2 47% 102 29.96 0.0
04 12:55 Calm 10.00 Fair CLR 92.3 70.7 94.1 72.1 49% 99 29.97 0.0
04 12:35 Calm 10.00 Partly Cloudy SCT040 92.8 68.5 45% 98 29.98 0.0
04 12:15 Calm 10.00 Mostly Cloudy BKN040 91.6 72 53% 99 29.99 0.0
04 11:55 Calm 10.00 Fair CLR 89.6 73.4 59% 98 30 0.0
04 11:35 Calm 10.00 Fair CLR 88.7 72.5 59% 96 30 0.0
04 11:15 Calm 10.00 Fair CLR 89.1 72.7 59% 97 30 0.0
04 10:55 Calm 10.00 Fair CLR 88.5 72.9 60% 96 30.01 0.0
04 10:35 Calm 10.00 Fair CLR 88.2 71.8 58% 95 30 0.0
04 10:15 Calm 10.00 Fair CLR 86.4 73 65% 94 30 0.0
04 09:55 Calm 10.00 Fair CLR 85.5 74.5 70% 94 30 0.0
04 09:35 Calm 10.00 Fair CLR 84 75.4 75% 92 30 0.0
04 09:15 Calm 10.00 Fair CLR 82.2 75.4 80% 89 30 0.0
04 08:55 Calm 10.00 Fair CLR 80.2 75.4 85% 86 30 0.0
04 08:35 Calm 10.00 Fair CLR 78.4 74.7 88% 81 29.99 0.0
04 08:15 Calm 10.00 Fair CLR 76.1 76.1 100% 75 29.99 0.0
04 07:55 Calm 10.00 Fair CLR 74.7 74.7 100% 29.98 0.0
04 07:35 Calm 7.00 Fair CLR 72.9 72.9 100% 29.98 0.0
04 07:15 Calm 5.00 Fog/Mist CLR 72.3 72.3 100% 29.98 0.0
04 06:55 Calm 10.00 Fair CLR 72.1 72.1 75 72 100% 29.97 0.0
04 06:35 Calm 10.00 Fair CLR 72 72 100% 29.96 0.0
04 06:15 Calm 7.00 Fair CLR 72.9 72.9 100% 29.96 0.0
04 05:55 Calm 2.50 Fog/Mist CLR 73 73 100% 29.96 0.0
04 05:35 Calm 7.00 Fair CLR 73.2 73.2 100% 29.96 0.0
04 05:15 Calm 5.00 Fog/Mist CLR 73 73 100% 29.96 0.0
04 04:55 Calm 7.00 Fair CLR 72.9 72.9 100% 29.97 0.0
04 04:35 Calm 10.00 Fair CLR 73.6 73.6 100% 29.96 0.0
04 04:15 Calm 7.00 Fair CLR 73.2 73.2 100% 29.96 0.0
04 03:55 Calm 10.00 Fair CLR 73.6 73.6 100% 29.96 0.0
04 03:35 Calm 10.00 Fair CLR 73.6 73.6 100% 29.95 0.0
04 03:15 Calm 10.00 Fair CLR 73.8 73.8 100% 29.95 0.0
04 02:55 Calm 10.00 Fair CLR 73.9 73.9 100% 29.95 0.0
04 02:35 Calm 10.00 Fair CLR 73.8 73.8 100% 29.95 0.0
04 02:15 Calm 10.00 Fair CLR 74.1 74.1 100% 29.95 0.0
04 01:55 Calm 10.00 Fair CLR 74.7 74.7 100% 29.95 0.0
04 01:35 Calm 10.00 Fair CLR 74.5 74.5 100% 29.94 0.0
04 01:15 Calm 10.00 Fair CLR 74.3 74.3 100% 29.93 0.0
04 00:55 Calm 10.00 Fair CLR 74.7 74.7 88.7 74.7 100% 29.94 0.0
04 00:35 Calm 10.00 Fair CLR 75 75 100% 72 29.94 0.0
04 00:15 Calm 10.00 Fair CLR 75.2 75.2 100% 73 29.94 0.0
03 23:55 Calm 10.00 Fair CLR 76.6 74.7 94% 77 29.93 0.0
03 23:35 Calm 10.00 Fair CLR 77 74.5 92% 78 29.94 0.0
03 23:15 Calm 10.00 Fair CLR 77 74.7 93% 78 29.93 0.0
03 22:55 Calm 10.00 Fair CLR 77.2 74.7 92% 79 29.93 0.0
03 22:35 Calm 10.00 Fair CLR 77.2 74.5 91% 79 29.93 0.0
03 22:15 Calm 10.00 Fair CLR 78.1 74.5 89% 81 29.93 0.0
03 21:55 Calm 10.00 Fair CLR 77.7 74.7 90% 80 29.93 0.0
03 21:35 Calm 10.00 Fair CLR 80.4 74.1 81% 85 29.93 0.0
03 21:15 Calm 10.00 Fair CLR 79.2 74.3 85% 83 29.93 0.0
03 20:55 Calm 10.00 Fair CLR 81.3 73.9 78% 87 29.93 0.0
03 20:35 Calm 10.00 Fair CLR 82.2 73.4 75% 88 29.93 0.0
03 20:15 Calm 10.00 Fair CLR 82.9 73.6 73% 89 29.93 0.0
03 19:55 Calm 10.00 Fair CLR 84.2 73.8 71% 91 29.92 0.0
03 19:35 Calm 10.00 Fair CLR 86.5 73 64% 94 29.91 0.0
03 19:15 Calm 10.00 Partly Cloudy SCT055 87.8 73.2 62% 96 29.91 0.0
03 18:55 SW 5 10.00 Fair CLR 88.7 72.9 94.3 81 60% 96 29.9 0.0
03 18:35 SW 7 10.00 Fair CLR 89.8 72.5 57% 97 29.9 0.0
03 18:15 SW 7 10.00 Fair CLR 90.7 72.5 55% 99 29.91 0.0
03 17:55 SW 6 10.00 Fair CLR 90.7 72 54% 98 29.91 0.0
03 17:35 SW 6 10.00 Fair CLR 91 71.4 53% 98 29.91 0.0
03 17:15 S 6 10.00 Fair CLR 91.2 71.4 52% 98 29.91 0.0
03 16:55 W 5 10.00 Fair CLR 90.5 74.5 59% 101 29.92 0.0
03 16:35 SW 9 10.00 Fair CLR 90 75.7 63% 101 29.93 0.0
03 16:15 SW 5 10.00 Fair CLR 89.8 75.6 63% 101 29.93 0.0
03 15:55 Calm 10.00 Fair CLR 89.8 73.4 59% 98 29.93 0.0
03 15:35 Calm 10.00 Fair CLR 89.2 74.8 63% 99 29.94 0.0
03 15:15 Calm 10.00 Fair CLR 87.3 74.5 66% 96 29.95 0.0
03 14:55 W 7 10.00 Thunderstorm CLR 84.2 75 74% 92 29.96 0.0
03 14:35 W 10 10.00 Partly Cloudy SCT013 82.8 77.2 83% 92 29.97 0.0
03 14:15 W 8 7.00 Thunderstorm Rain in Vicinity SCT015 SCT037 BKN060 82 75.4 80% 89 29.98 0.0
03 13:55 SW 8 10.00 Thunderstorm Light Rain in Vicinity SCT036 BKN045 OVC060 85.6 73.9 68% 93 29.98 0.0
03 13:35 NW 6 10.00 Mostly Cloudy BKN043 92.7 72.7 52% 101 29.97 0.0
03 13:15 Calm 10.00 Thunderstorm in Vicinity SCT041 92.7 71.4 50% 100 29.96 0.0
03 12:55 SE 3 10.00 Mostly Cloudy SCT041 BKN049 91.6 73 92.8 73.6 55% 100 29.97 0.0
03 12:35 Calm 10.00 Partly Cloudy SCT039 92.3 73.9 55% 102 29.98 0.0
03 12:15 Calm 10.00 Mostly Cloudy SCT031 BKN037 91.8 73.4 55% 101 29.99 0.0
03 11:55 Calm 10.00 Overcast BKN030 OVC055 90.5 75.4 61% 102 29.99 0.0
03 11:35 Calm 10.00 Mostly Cloudy SCT027 BKN032 BKN038 89.2 76.5 66% 101 30 0.0
03 11:15 Calm 10.00 Mostly Cloudy SCT022 BKN075 88.2 75.2 66% 98 30 0.0
03 10:55 Calm 10.00 Mostly Cloudy BKN022 BKN027 BKN035 87.3 76.6 71% 99 30.01 0.0
03 10:35 Calm 10.00 Partly Cloudy SCT020 SCT029 SCT034 87.6 77.4 72% 100 30.01 0.0
03 10:15 Calm 10.00 Partly Cloudy SCT014 SCT020 86.2 77.5 76% 98 30.01 0.0
03 09:55 Calm 10.00 Partly Cloudy SCT012 84.6 77.5 80% 95 30.01 0.0
03 09:35 Calm 10.00 Fair CLR 82.6 77.5 85% 92 30.01 0.0
03 09:15 Calm 10.00 Fair CLR 80.8 77.4 89% 88 30.01 0.0
03 08:55 Calm 10.00 Partly Cloudy SCT005 79.5 77.4 93% 85 30.02 0.0
03 08:35 Calm 10.00 Partly Cloudy SCT003 77.9 77.9 100% 80 30.02 0.0
03 08:15 Calm 7.00 Partly Cloudy SCT003 76.6 76.6 100% 77 30.02 0.0
03 07:55 Calm 5.00 Fog/Mist BKN003 76.1 76.1 100% 75 30.02 0.0
03 07:35 Calm 7.00 Mostly Cloudy BKN003 74.5 74.5 100% 30.01 0.0
03 07:15 Calm 1.75 Fog/Mist VV007 74.3 74.3 100% 30.01 0.0
03 06:55 Calm 1.00 Fog/Mist VV007 73.8 73.8 77.2 73.2 100% 30 0.0
03 06:35 Calm 4.00 Fog/Mist CLR 73.2 73.2 100% 29.99 0.0
03 06:15 Calm 5.00 Fog/Mist CLR 74.7 74.7 100% 29.99 0.0
03 05:55 Calm 7.00 Fair CLR 75.2 75.2 100% 73 29.98 0.0
03 05:35 Calm 7.00 Fair CLR 75.4 75.4 100% 73 29.98 0.0
03 05:15 Calm 10.00 Fair CLR 75.4 75.4 100% 73 29.98 0.0
03 04:55 Calm 7.00 Fair CLR 74.8 74.8 100% 29.98 0.0
03 04:35 Calm 5.00 Fog/Mist CLR 74.7 74.7 100% 29.98 0.0
03 04:15 Calm 7.00 Fair CLR 75.2 75.2 100% 73 29.97 0.0
03 03:55 Calm 10.00 Fair CLR 75.2 75.2 100% 73 29.97 0.0
03 03:35 Calm 7.00 Fair CLR 74.3 74.3 100% 29.97 0.0
03 03:15 Calm 10.00 Fair CLR 75.4 75.4 100% 73 29.97 0.0
03 02:55 Calm 10.00 Fair CLR 75.6 75.6 100% 74 29.97 0.0
03 02:35 Calm 10.00 Fair CLR 76.1 76.1 100% 75 29.97 0.0
03 02:15 Calm 10.00 Fair CLR 76.1 76.1 100% 75 29.97 0.0
03 01:55 Calm 10.00 Fair CLR 76.6 76.6 100% 77 29.97 0.0
03 01:35 Calm 10.00 Fair CLR 77 77 100% 78 29.97 0.0
03 01:15 Calm 10.00 Fair CLR 77.2 77.2 100% 78 29.97 0.0
03 00:55 Calm 10.00 Fair CLR 77 77 83.5 76.3 100% 78 29.98 0.0
03 00:35 Calm 10.00 Fair CLR 76.3 76.3 100% 76 29.98 0.0
03 00:15 Calm 10.00 Fair CLR 77 76.8 99% 78 29.98 0.0
02 23:55 Calm 10.00 Fair CLR 77 76.1 97% 78 29.98 0.0
02 23:35 Calm 10.00 Fair CLR 77.5 76.1 95% 79 29.98 0.0
02 23:15 Calm 10.00 Fair CLR 77.5 75.2 93% 79 29.98 0.0
02 22:55 Calm 10.00 Fair CLR 77 75.2 94% 78 29.99 0.0
02 22:35 Calm 10.00 Fair CLR 77.2 76.6 98% 78 29.99 0.0
02 22:15 Calm 10.00 Fair CLR 78.1 77.9 99% 81 30 0.0
02 21:55 Calm 10.00 Fair CLR 78.8 77.4 95% 83 30 0.0
02 21:35 Calm 10.00 Fair CLR 79 77.2 94% 83 29.98 0.0
02 21:15 Calm 10.00 Fair CLR 79.7 77.5 93% 85 29.98 0.0
02 20:55 Calm 10.00 Fair CLR 80.2 77.5 92% 87 29.97 0.0
02 20:35 Calm 10.00 Fair CLR 79.7 77.5 93% 85 29.97 0.0
02 20:15 Calm 10.00 Partly Cloudy SCT100 80.2 77.2 90% 86 29.96 0.0
02 19:55 Calm 10.00 Partly Cloudy SCT100 81.9 77 85% 90 29.96 0.0
02 19:35 Calm 10.00 Fair CLR 82 76.8 84% 90 29.97 0.0
02 19:15 Calm 10.00 Fair CLR 83.1 76.6 81% 92 29.97 0.0
02 18:55 Calm 10.00 Fair CLR 83.8 76.5 86.4 80.8 79% 93 29.97 0.0 0.08
02 18:35 Calm 10.00 Partly Cloudy SCT110 84.6 76.1 76% 94 29.97 0.0
02 18:15 Calm 10.00 Partly Cloudy SCT110 84.6 75.9 75% 94 29.97 0.0
02 17:55 Calm 10.00 Fair CLR 85.1 76.1 75% 95 29.96 0.0
02 17:35 SE 6 10.00 Fair CLR 85.8 75.7 72% 95 29.96 0.0
02 17:15 E 8 10.00 Fair CLR 84.9 75.6 74% 94 29.96 0.0
02 16:55 SE 7 10.00 Fair CLR 85.3 75.7 73% 95 29.96 0.0
02 16:35 Calm 10.00 Partly Cloudy SCT120 84 75.6 76% 92 29.97 0.0
02 16:15 Calm 10.00 Partly Cloudy SCT120 84 76.3 78% 93 29.98 0.0
02 15:55 Calm 10.00 Fair CLR 82.9 75.7 79% 91 30 0.0 0.08
02 15:35 E 8 10.00 Fair CLR 83.5 76.1 79% 92 30.01 0.0
02 15:15 E 7 10.00 Partly Cloudy SCT060 SCT075 SCT095 83.5 76.5 79% 92 30.02 0.0
02 14:55 E 8 10.00 Thunderstorm SCT028 BKN044 OVC070 84.2 76.3 77% 93 30.02 0.0 0.01
02 14:35 Calm 10.00 Thunderstorm BKN030 OVC040 83.5 73.9 73% 90 30.01 0.0
02 14:15 Calm 10.00 Thunderstorm in Vicinity SCT034 BKN042 BKN070 82.8 73.8 74% 89 30.01 0.0
02 13:55 Calm 10.00 Mostly Cloudy SCT024 SCT041 BKN070 82.8 75 78% 90 30.01 0.0 0.07
02 13:35 Calm 10.00 Overcast SCT019 BKN031 OVC050 81.5 76.5 85% 89 30.02 0.0 0.07
02 13:15 Calm 2.50 Heavy Rain SCT017 SCT023 BKN033 82.4 75.9 81% 90 30.02 0.0 0.07
02 12:55 Calm 10.00 Partly Cloudy SCT030 82.8 75 87.8 77.7 78% 90 30.02 0.0 0.03
02 12:35 Calm 10.00 Partly Cloudy SCT030 SCT036 SCT047 83.5 74.7 75% 91 30.02 0.0
02 12:15 Calm 10.00 Mostly Cloudy BKN028 BKN034 BKN047 82.6 74.7 77% 89 30.03 0.0
02 11:55 SE 9 10.00 Overcast BKN028 BKN034 OVC090 84.9 75.7 74% 94 30.04 0.0
02 11:35 S 8 10.00 Thunderstorm SCT028 SCT044 BKN060 86.5 76.5 72% 97 30.04 0.0
02 11:15 S 7 10.00 Mostly Cloudy BKN028 BKN038 BKN065 87.1 77 72% 99 30.03 0.0
02 10:55 S 7 10.00 Mostly Cloudy BKN026 BKN038 BKN070 86.4 77 74% 98 30.04 0.0 0.03
02 10:35 S 8 10.00 Mostly Cloudy SCT023 SCT029 BKN055 85.3 77.5 78% 97 30.04 0.0 0.03
02 10:15 Calm 3.00 Light Rain SCT016 BKN023 BKN030 82.9 79.5 89% 94 30.03 0.0 0.03
02 09:55 SE 8 10.00 Mostly Cloudy BKN014 85.6 77.5 77% 97 30.03 0.0
02 09:35 SE 7 10.00 Mostly Cloudy BKN010 82.9 77 82% 92 30.03 0.0
02 09:15 SE 9 10.00 Overcast OVC010 81.9 76.6 84% 90 30.03 0.0
02 08:55 SE 6 10.00 Overcast OVC008 81 76.8 87% 88 30.02 0.0
02 08:35 Calm 10.00 Overcast OVC006 80.4 77 89% 87 30.02 0.0
02 08:15 Calm 10.00 Overcast OVC006 79.2 77 93% 84 30.02 0.0
02 07:55 Calm 10.00 Overcast OVC006 78.6 77 95% 82 30.02 0.0
02 07:35 Calm 10.00 Overcast OVC006 78.3 77.4 97% 81 30.01 0.0
02 07:15 Calm 10.00 Overcast OVC006 77.9 77.5 99% 80 30.01 0.0
02 06:55 Calm 10.00 Overcast OVC006 77.5 77.4 78.1 77 99% 79 30.01 0.0
02 06:35 Calm 10.00 Overcast OVC008 77.5 77.4 99% 79 30.01 0.0
02 06:15 Calm 10.00 Overcast OVC008 77.9 77.5 99% 80 30 0.0
02 05:55 Calm 10.00 Overcast BKN008 BKN012 OVC020 77.4 77.4 100% 79 30 0.0
02 05:35 Calm 10.00 Mostly Cloudy SCT008 SCT012 BKN020 77.2 77.2 100% 78 29.99 0.0
02 05:15 Calm 10.00 Partly Cloudy SCT008 77 77 100% 78 29.99 0.0
02 04:55 Calm 10.00 Partly Cloudy SCT008 SCT013 77.4 76.6 98% 79 29.99 0.0
02 04:35 Calm 10.00 Mostly Cloudy BKN013 77.5 76.3 96% 79 29.99 0.0
02 04:15 Calm 10.00 Overcast OVC012 77.9 76.1 94% 80 29.99 0.0
02 03:55 Calm 10.00 Overcast OVC012 78.1 76.3 94% 81 29.99 0.0
02 03:35 Calm 10.00 Overcast OVC012 77.9 76.1 94% 80 29.99 0.0
Date Time (cdt) Wind (mph) Vis. (mi.) Weather Sky Cond. Air Dwpt Max. Min. Relative Humidity Wind Chill (°F) Heat Index (°F) altimeter (in) sea level (mb) 1 hr 3 hr 6 hr
6 hour
Temperature (ºF) Pressure Precipitation (in)